createdAt,value
2023-04-03T00:01:53.276Z,2.00
2023-04-03T00:06:54.982Z,2.37
2023-04-03T00:11:56.538Z,2.10
2023-04-03T00:16:58.191Z,2.33
2023-04-03T00:22:00.796Z,2.10
2023-04-03T00:27:02.444Z,2.20
2023-04-03T00:32:04.094Z,2.27
2023-04-03T00:37:05.915Z,2.33
2023-04-03T00:42:07.793Z,2.40
2023-04-03T00:47:12.158Z,2.40
2023-04-03T00:52:17.850Z,2.20
2023-04-03T00:57:19.741Z,2.27
2023-04-03T01:02:22.024Z,2.40
2023-04-03T01:07:29.772Z,2.30
2023-04-03T01:12:35.448Z,2.30
2023-04-03T01:17:46.750Z,2.13
2023-04-03T01:23:07.095Z,2.30
2023-04-03T01:28:14.316Z,2.00
2023-04-03T01:33:16.299Z,2.10
2023-04-03T01:38:18.587Z,2.37
2023-04-03T01:43:20.359Z,2.20
2023-04-03T01:48:22.236Z,2.27
2023-04-03T01:53:23.884Z,2.50
2023-04-03T01:58:25.479Z,2.10
2023-04-03T02:03:28.328Z,2.30
2023-04-03T02:08:30.018Z,2.30
2023-04-03T02:13:31.686Z,2.43
2023-04-03T02:18:33.328Z,2.30
2023-04-03T02:23:37.581Z,2.30
2023-04-03T02:28:39.932Z,2.63
2023-04-03T02:33:42.058Z,2.20
2023-04-03T02:38:46.669Z,2.30
2023-04-03T02:43:48.603Z,2.47
2023-04-03T02:48:51.497Z,2.50
2023-04-03T02:53:54.273Z,2.10
2023-04-03T02:59:00.104Z,2.40
2023-04-03T03:04:02.705Z,2.50
2023-04-03T03:09:04.814Z,2.40
2023-04-03T03:14:06.423Z,2.37
2023-04-03T03:19:08.783Z,2.50
2023-04-03T03:24:10.427Z,2.47
2023-04-03T03:29:12.133Z,2.40
2023-04-03T03:34:14.107Z,2.53
2023-04-03T03:39:16.160Z,2.70
2023-04-03T03:44:17.710Z,2.87
2023-04-03T03:49:19.487Z,2.50
2023-04-03T03:54:21.969Z,2.50
2023-04-03T03:59:24.381Z,2.80
2023-04-03T04:04:26.244Z,2.60
2023-04-03T04:09:29.008Z,2.40
2023-04-03T04:14:30.836Z,2.63
2023-04-03T04:19:34.273Z,2.70
2023-04-03T04:24:38.412Z,2.77
2023-04-03T04:29:40.992Z,3.10
2023-04-03T04:34:43.567Z,2.80
2023-04-03T04:39:45.584Z,3.00
2023-04-03T04:44:47.488Z,2.77
2023-04-03T04:49:50.138Z,3.20
2023-04-03T04:54:53.403Z,3.00
2023-04-03T04:59:55.238Z,3.17
2023-04-03T05:04:57.132Z,3.43
2023-04-03T05:10:04.645Z,4.00
2023-04-03T05:15:08.193Z,3.30
2023-04-03T05:20:10.720Z,3.00
2023-04-03T05:25:13.305Z,2.60
2023-04-03T05:30:19.077Z,3.20
2023-04-03T05:35:23.564Z,3.00
2023-04-03T05:40:28.591Z,3.13
2023-04-03T05:45:32.007Z,2.87
2023-04-03T05:50:35.006Z,3.10
2023-04-03T05:55:36.911Z,2.83
2023-04-03T06:00:39.691Z,2.93
2023-04-03T06:05:42.687Z,2.50
2023-04-03T06:10:46.761Z,2.53
2023-04-03T06:15:48.590Z,2.10
2023-04-03T06:20:52.375Z,2.20
2023-04-03T06:25:55.604Z,1.80
2023-04-03T06:30:57.271Z,2.00
2023-04-03T06:35:59.928Z,1.90
2023-04-03T06:41:02.046Z,1.70
2023-04-03T06:46:04.032Z,1.70
2023-04-03T06:51:05.736Z,1.80
2023-04-03T06:56:07.367Z,1.67
2023-04-03T07:01:10.987Z,1.77
2023-04-03T07:06:13.639Z,1.73
2023-04-03T07:11:15.700Z,1.57
2023-04-03T07:16:17.487Z,1.40
2023-04-03T07:21:19.149Z,1.70
2023-04-03T07:26:21.987Z,1.37
2023-04-03T07:31:24.028Z,1.70
2023-04-03T07:36:26.036Z,1.73
2023-04-03T07:41:27.825Z,1.40
2023-04-03T07:46:30.364Z,1.40
2023-04-03T07:51:32.331Z,1.37
2023-04-03T07:56:34.407Z,1.80
2023-04-03T08:01:36.154Z,1.40
2023-04-03T08:06:46.370Z,1.57
2023-04-03T08:11:48.711Z,1.80
2023-04-03T08:16:50.690Z,1.60
2023-04-03T08:21:52.230Z,1.70
2023-04-03T08:26:53.847Z,1.53
2023-04-03T08:31:55.703Z,1.30
2023-04-03T08:36:57.285Z,1.40
2023-04-03T08:41:59.915Z,1.70
2023-04-03T08:47:26.275Z,1.20
2023-04-03T08:52:46.382Z,1.30
2023-04-03T08:57:50.092Z,1.30
2023-04-03T09:02:56.931Z,1.50
2023-04-03T09:08:11.049Z,1.73
2023-04-03T09:13:39.522Z,1.80
2023-04-03T09:18:44.282Z,1.23
2023-04-03T09:23:51.842Z,1.27
2023-04-03T09:28:57.294Z,1.33
2023-04-03T09:34:03.571Z,1.80
2023-04-03T09:39:06.680Z,1.20
2023-04-03T09:44:38.104Z,1.73
2023-04-03T09:49:41.570Z,1.60
2023-04-03T09:54:43.284Z,1.47
2023-04-03T09:59:48.366Z,1.30
2023-04-03T10:05:06.254Z,1.53
2023-04-03T10:10:19.082Z,1.57
2023-04-03T10:15:21.064Z,1.30
2023-04-03T10:20:41.630Z,1.37
2023-04-03T10:25:56.994Z,1.40
2023-04-03T10:31:07.523Z,1.50
2023-04-03T10:36:33.160Z,1.70
2023-04-03T10:42:17.194Z,1.47
2023-04-03T10:47:51.820Z,1.40
2023-04-03T10:52:59.452Z,1.63
2023-04-03T10:58:02.810Z,1.50
2023-04-03T11:03:14.951Z,1.53
2023-04-03T11:08:31.437Z,1.27
2023-04-03T11:13:50.028Z,1.37
2023-04-03T11:19:01.211Z,1.47
2023-04-03T11:24:05.314Z,1.70
2023-04-03T11:29:17.910Z,1.50
2023-04-03T11:34:35.591Z,1.40
2023-04-03T11:39:41.668Z,1.33
2023-04-03T11:44:43.682Z,1.27
2023-04-03T11:50:32.783Z,1.30
2023-04-03T11:55:34.926Z,1.20
2023-04-03T12:00:47.270Z,1.20
2023-04-03T12:05:48.911Z,1.23
2023-04-03T12:11:09.658Z,1.57
2023-04-03T12:16:27.356Z,1.30
2023-04-03T12:21:35.096Z,1.33
2023-04-03T12:26:52.352Z,1.47
2023-04-03T12:32:08.686Z,1.30
2023-04-03T12:37:22.890Z,1.00
2023-04-03T12:43:11.360Z,1.30
2023-04-03T12:48:18.643Z,1.20
2023-04-03T12:53:21.286Z,1.30
2023-04-03T12:58:28.270Z,1.30
2023-04-03T13:03:31.012Z,1.10
2023-04-03T13:08:36.349Z,1.43
2023-04-03T13:13:39.999Z,1.33
2023-04-03T13:18:42.077Z,1.40
2023-04-03T13:23:47.222Z,1.30
2023-04-03T13:28:49.467Z,1.50
2023-04-03T13:34:04.195Z,1.27
2023-04-03T13:39:11.594Z,1.30
2023-04-03T13:44:29.591Z,1.30
2023-04-03T13:49:37.816Z,1.40
2023-04-03T13:54:48.542Z,1.30
2023-04-03T13:59:51.084Z,1.47
2023-04-03T14:04:59.221Z,1.40
2023-04-03T14:10:03.420Z,1.20
2023-04-03T14:15:15.435Z,1.40
2023-04-03T14:20:19.405Z,1.30
2023-04-03T14:25:23.333Z,1.37
2023-04-03T14:30:33.163Z,1.27
2023-04-03T14:35:34.820Z,1.30
2023-04-03T14:40:36.610Z,1.30
2023-04-03T14:45:38.425Z,1.53
2023-04-03T14:50:43.576Z,1.60
2023-04-03T14:55:50.849Z,1.30
2023-04-03T15:00:52.857Z,1.50
2023-04-03T15:06:00.312Z,1.30
2023-04-03T15:11:04.784Z,1.43
2023-04-03T15:16:14.156Z,1.30
2023-04-03T15:21:17.910Z,1.30
2023-04-03T15:26:19.521Z,1.20
2023-04-03T15:31:25.372Z,1.50
2023-04-03T15:36:34.122Z,1.40
2023-04-03T15:41:36.679Z,1.10
2023-04-03T15:46:38.472Z,1.30
2023-04-03T15:51:40.005Z,1.20
2023-04-03T15:56:41.611Z,1.33
2023-04-03T16:01:43.774Z,1.33
2023-04-03T16:06:45.509Z,1.30
2023-04-03T16:11:47.104Z,1.30
2023-04-03T16:16:48.909Z,1.27
2023-04-03T16:21:50.777Z,1.40
2023-04-03T16:26:54.292Z,1.40
2023-04-03T16:31:56.020Z,1.20
2023-04-03T16:36:57.692Z,1.23
2023-04-03T16:41:59.401Z,1.37
2023-04-03T16:47:01.229Z,1.27
2023-04-03T16:52:04.858Z,1.30
2023-04-03T16:57:06.630Z,1.50
2023-04-03T17:02:08.847Z,1.30
2023-04-03T17:07:10.622Z,1.37
2023-04-03T17:12:12.241Z,1.40
2023-04-03T17:17:14.881Z,1.30
2023-04-03T17:22:17.568Z,1.30
2023-04-03T17:27:19.206Z,1.33
2023-04-03T17:32:20.936Z,1.40
2023-04-03T17:37:22.568Z,1.40
2023-04-03T17:42:24.913Z,1.40
2023-04-03T17:47:27.069Z,1.53
2023-04-03T17:52:28.835Z,1.57
2023-04-03T17:57:31.528Z,1.60
2023-04-03T18:02:33.155Z,1.40
2023-04-03T18:07:34.792Z,1.50
2023-04-03T18:12:37.438Z,1.60
2023-04-03T18:17:39.236Z,1.50
2023-04-03T18:22:41.280Z,3.00
2023-04-03T18:27:43.601Z,3.33
2023-04-03T18:32:45.358Z,1.90
2023-04-03T18:37:47.092Z,2.80
2023-04-03T18:42:48.774Z,1.80
2023-04-03T18:47:50.713Z,2.20
2023-04-03T18:52:52.375Z,1.80
2023-04-03T18:57:53.933Z,2.23
2023-04-03T19:02:55.617Z,2.00
2023-04-03T19:07:57.826Z,2.00
2023-04-03T19:12:59.583Z,1.90
2023-04-03T19:18:01.180Z,1.80
2023-04-03T19:23:03.053Z,1.80
2023-04-03T19:28:04.662Z,1.93
2023-04-03T19:33:06.588Z,1.93
2023-04-03T19:38:08.188Z,1.90
2023-04-03T19:43:11.533Z,2.07
2023-04-03T19:48:13.706Z,1.80
2023-04-03T19:53:19.346Z,2.00
2023-04-03T19:58:20.992Z,1.97
2023-04-03T20:03:23.103Z,1.90
2023-04-03T20:08:28.266Z,3.17
2023-04-03T20:13:30.238Z,1.90
2023-04-03T20:18:32.036Z,2.20
2023-04-03T20:23:34.618Z,1.90
2023-04-03T20:28:36.306Z,2.00
2023-04-03T20:33:38.172Z,2.07
2023-04-03T20:38:39.782Z,2.07
2023-04-03T20:43:46.250Z,2.20
2023-04-03T20:48:48.080Z,1.90
2023-04-03T20:53:50.043Z,2.07
2023-04-03T20:58:52.401Z,2.10
2023-04-03T21:04:23.123Z,1.87
2023-04-03T21:10:02.212Z,2.37
2023-04-03T21:15:41.307Z,3.67
2023-04-03T21:20:46.725Z,3.20
2023-04-03T21:25:48.944Z,2.67
2023-04-03T21:30:50.552Z,2.40
2023-04-03T21:35:57.876Z,2.50
2023-04-03T21:41:00.630Z,2.70
2023-04-03T21:46:02.788Z,2.77
2023-04-03T21:51:05.283Z,3.10
2023-04-03T21:56:07.248Z,3.13
2023-04-03T22:01:16.206Z,2.67
2023-04-03T22:06:17.855Z,2.37
2023-04-03T22:11:19.520Z,2.50
2023-04-03T22:16:23.552Z,3.30
2023-04-03T22:21:25.490Z,2.70
2023-04-03T22:26:27.059Z,2.70
2023-04-03T22:31:28.606Z,2.70
2023-04-03T22:36:30.471Z,2.27
2023-04-03T22:41:32.533Z,2.70
2023-04-03T22:46:34.152Z,2.40
2023-04-03T22:51:35.768Z,2.87
2023-04-03T22:56:37.586Z,2.50
2023-04-03T23:01:39.659Z,2.77
2023-04-03T23:06:41.880Z,2.70
2023-04-03T23:11:43.767Z,2.63
2023-04-03T23:16:46.790Z,2.87
2023-04-03T23:21:48.480Z,3.00
2023-04-03T23:26:50.154Z,2.40
2023-04-03T23:31:51.767Z,2.70
2023-04-03T23:36:53.446Z,2.63
2023-04-03T23:41:55.151Z,2.97
2023-04-03T23:46:58.089Z,2.90
2023-04-03T23:51:59.880Z,2.87
